sensor_id;sensor_type;location;lat;lon;timestamp;pressure;altitude;pressure_sealevel;temperature;humidity
78317;BME280;67572;50.930;18.276;2023-05-10T00:00:17;99212.03;;;8.10;57.32
78317;BME280;67572;50.930;18.276;2023-05-10T00:03:20;99212.53;;;8.17;57.27
78317;BME280;67572;50.930;18.276;2023-05-10T00:06:25;99204.91;;;8.26;57.11
78317;BME280;67572;50.930;18.276;2023-05-10T00:09:30;99202.34;;;8.25;56.04
78317;BME280;67572;50.930;18.276;2023-05-10T00:12:33;99206.28;;;8.18;56.58
78317;BME280;67572;50.930;18.276;2023-05-10T00:15:37;99212.25;;;8.21;56.63
78317;BME280;67572;50.930;18.276;2023-05-10T00:18:40;99213.53;;;8.14;56.06
78317;BME280;67572;50.930;18.276;2023-05-10T00:21:44;99211.09;;;8.11;57.28
78317;BME280;67572;50.930;18.276;2023-05-10T00:24:49;99207.84;;;8.06;57.03
78317;BME280;67572;50.930;18.276;2023-05-10T00:27:52;99199.56;;;7.96;57.02
78317;BME280;67572;50.930;18.276;2023-05-10T00:30:57;99196.50;;;8.04;56.60
78317;BME280;67572;50.930;18.276;2023-05-10T00:34:01;99194.69;;;8.04;56.78
78317;BME280;67572;50.930;18.276;2023-05-10T00:37:05;99195.88;;;7.99;57.23
78317;BME280;67572;50.930;18.276;2023-05-10T00:40:11;99192.13;;;8.03;56.51
78317;BME280;67572;50.930;18.276;2023-05-10T00:43:17;99192.28;;;8.00;57.46
78317;BME280;67572;50.930;18.276;2023-05-10T00:46:22;99195.91;;;7.83;56.80
78317;BME280;67572;50.930;18.276;2023-05-10T00:49:27;99188.38;;;7.91;57.91
78317;BME280;67572;50.930;18.276;2023-05-10T00:52:31;99182.06;;;7.78;57.81
78317;BME280;67572;50.930;18.276;2023-05-10T00:55:37;99189.78;;;7.67;58.24
78317;BME280;67572;50.930;18.276;2023-05-10T00:58:40;99181.22;;;7.62;58.34
78317;BME280;67572;50.930;18.276;2023-05-10T01:01:46;99184.56;;;7.65;57.88
78317;BME280;67572;50.930;18.276;2023-05-10T01:04:50;99180.03;;;7.51;58.54
78317;BME280;67572;50.930;18.276;2023-05-10T01:07:58;99174.94;;;7.48;58.36
78317;BME280;67572;50.930;18.276;2023-05-10T01:11:03;99175.50;;;7.22;59.70
78317;BME280;67572;50.930;18.276;2023-05-10T01:14:08;99177.69;;;7.14;60.35
78317;BME280;67572;50.930;18.276;2023-05-10T01:17:13;99173.88;;;7.19;59.73
78317;BME280;67572;50.930;18.276;2023-05-10T01:20:17;99168.50;;;7.21;60.12
78317;BME280;67572;50.930;18.276;2023-05-10T01:23:39;99162.91;;;7.10;60.15
78317;BME280;67572;50.930;18.276;2023-05-10T01:27:07;99164.28;;;7.01;61.15
78317;BME280;67572;50.930;18.276;2023-05-10T01:34:07;99172.25;;;6.84;61.50
78317;BME280;67572;50.930;18.276;2023-05-10T01:37:18;99163.47;;;6.83;61.10
78317;BME280;67572;50.930;18.276;2023-05-10T01:40:28;99165.41;;;6.80;60.97
78317;BME280;67572;50.930;18.276;2023-05-10T01:43:38;99165.59;;;6.77;61.55
78317;BME280;67572;50.930;18.276;2023-05-10T01:46:51;99173.16;;;6.67;61.50
78317;BME280;67572;50.930;18.276;2023-05-10T01:50:02;99163.66;;;6.63;61.97
78317;BME280;67572;50.930;18.276;2023-05-10T01:53:08;99165.03;;;6.70;61.67
78317;BME280;67572;50.930;18.276;2023-05-10T01:56:14;99165.31;;;6.65;61.52
78317;BME280;67572;50.930;18.276;2023-05-10T01:59:20;99157.84;;;6.56;61.70
78317;BME280;67572;50.930;18.276;2023-05-10T02:02:25;99163.38;;;6.52;62.28
78317;BME280;67572;50.930;18.276;2023-05-10T02:05:33;99155.94;;;6.43;62.38
78317;BME280;67572;50.930;18.276;2023-05-10T02:08:39;99152.41;;;6.42;62.78
78317;BME280;67572;50.930;18.276;2023-05-10T02:11:44;99154.00;;;6.29;62.70
78317;BME280;67572;50.930;18.276;2023-05-10T02:14:47;99146.28;;;6.42;62.65
78317;BME280;67572;50.930;18.276;2023-05-10T02:17:53;99149.25;;;6.35;62.70
78317;BME280;67572;50.930;18.276;2023-05-10T02:20:59;99157.41;;;6.31;63.16
78317;BME280;67572;50.930;18.276;2023-05-10T02:24:06;99152.81;;;6.17;63.21
78317;BME280;67572;50.930;18.276;2023-05-10T02:27:12;99152.19;;;6.29;62.87
78317;BME280;67572;50.930;18.276;2023-05-10T02:30:18;99146.69;;;6.17;63.53
78317;BME280;67572;50.930;18.276;2023-05-10T02:33:24;99147.44;;;6.19;63.80
78317;BME280;67572;50.930;18.276;2023-05-10T02:36:30;99148.69;;;6.11;63.78
78317;BME280;67572;50.930;18.276;2023-05-10T02:39:34;99146.88;;;6.12;64.36
78317;BME280;67572;50.930;18.276;2023-05-10T02:42:41;99151.28;;;6.13;63.75
78317;BME280;67572;50.930;18.276;2023-05-10T02:45:47;99149.78;;;6.07;63.48
78317;BME280;67572;50.930;18.276;2023-05-10T02:48:51;99147.53;;;6.00;64.07
78317;BME280;67572;50.930;18.276;2023-05-10T02:52:00;99143.94;;;6.01;63.97
78317;BME280;67572;50.930;18.276;2023-05-10T02:55:05;99141.47;;;5.98;64.06
78317;BME280;67572;50.930;18.276;2023-05-10T02:58:10;99149.16;;;6.02;63.70
78317;BME280;67572;50.930;18.276;2023-05-10T03:01:14;99148.75;;;5.93;64.31
78317;BME280;67572;50.930;18.276;2023-05-10T03:04:18;99154.34;;;6.04;63.41
78317;BME280;67572;50.930;18.276;2023-05-10T03:07:24;99150.94;;;6.02;63.93
78317;BME280;67572;50.930;18.276;2023-05-10T03:10:30;99146.22;;;6.08;63.71
78317;BME280;67572;50.930;18.276;2023-05-10T03:13:41;99149.19;;;5.83;64.42
78317;BME280;67572;50.930;18.276;2023-05-10T03:16:57;99148.47;;;5.99;64.22
78317;BME280;67572;50.930;18.276;2023-05-10T03:20:08;99150.94;;;6.02;63.61
78317;BME280;67572;50.930;18.276;2023-05-10T03:23:22;99145.75;;;6.00;63.62
78317;BME280;67572;50.930;18.276;2023-05-10T03:26:30;99147.66;;;5.97;64.03
78317;BME280;67572;50.930;18.276;2023-05-10T03:29:42;99157.53;;;6.10;63.54
78317;BME280;67572;50.930;18.276;2023-05-10T03:32:47;99151.88;;;6.01;63.81
78317;BME280;67572;50.930;18.276;2023-05-10T03:35:52;99147.34;;;6.03;63.99
78317;BME280;67572;50.930;18.276;2023-05-10T03:38:57;99140.84;;;6.10;63.60
78317;BME280;67572;50.930;18.276;2023-05-10T03:42:01;99132.00;;;6.11;63.40
78317;BME280;67572;50.930;18.276;2023-05-10T03:45:06;99132.06;;;6.09;64.03
78317;BME280;67572;50.930;18.276;2023-05-10T03:48:10;99124.69;;;6.16;63.38
78317;BME280;67572;50.930;18.276;2023-05-10T03:51:17;99130.75;;;6.18;63.65
78317;BME280;67572;50.930;18.276;2023-05-10T03:54:22;99134.50;;;6.14;64.21
78317;BME280;67572;50.930;18.276;2023-05-10T03:57:25;99129.75;;;6.21;63.56
78317;BME280;67572;50.930;18.276;2023-05-10T04:00:29;99133.84;;;6.26;63.75
78317;BME280;67572;50.930;18.276;2023-05-10T04:03:34;99135.25;;;6.33;63.41
78317;BME280;67572;50.930;18.276;2023-05-10T04:06:40;99130.88;;;6.50;62.64
78317;BME280;67572;50.930;18.276;2023-05-10T04:09:44;99131.50;;;6.55;62.79
78317;BME280;67572;50.930;18.276;2023-05-10T04:12:48;99132.81;;;6.63;62.73
78317;BME280;67572;50.930;18.276;2023-05-10T04:15:52;99131.75;;;6.83;62.59
78317;BME280;67572;50.930;18.276;2023-05-10T04:18:55;99135.50;;;6.79;62.48
78317;BME280;67572;50.930;18.276;2023-05-10T04:21:59;99130.50;;;6.90;62.32
78317;BME280;67572;50.930;18.276;2023-05-10T04:25:05;99129.22;;;6.98;62.98
78317;BME280;67572;50.930;18.276;2023-05-10T04:28:10;99132.41;;;7.04;63.24
78317;BME280;67572;50.930;18.276;2023-05-10T04:31:13;99134.78;;;7.09;62.79
78317;BME280;67572;50.930;18.276;2023-05-10T04:34:17;99132.66;;;7.15;61.94
78317;BME280;67572;50.930;18.276;2023-05-10T04:37:20;99137.44;;;7.24;62.21
78317;BME280;67572;50.930;18.276;2023-05-10T04:40:26;99142.56;;;7.43;62.87
78317;BME280;67572;50.930;18.276;2023-05-10T04:43:30;99132.22;;;7.55;61.82
78317;BME280;67572;50.930;18.276;2023-05-10T04:46:33;99140.25;;;7.53;61.95
78317;BME280;67572;50.930;18.276;2023-05-10T04:49:37;99131.91;;;7.61;61.44
78317;BME280;67572;50.930;18.276;2023-05-10T04:52:40;99137.25;;;7.75;61.94
78317;BME280;67572;50.930;18.276;2023-05-10T04:55:45;99130.50;;;7.85;61.76
78317;BME280;67572;50.930;18.276;2023-05-10T04:58:50;99131.81;;;8.08;61.76
78317;BME280;67572;50.930;18.276;2023-05-10T05:01:53;99129.50;;;8.18;60.62
78317;BME280;67572;50.930;18.276;2023-05-10T05:04:57;99133.53;;;8.23;60.63
78317;BME280;67572;50.930;18.276;2023-05-10T05:08:01;99128.94;;;8.57;60.29
78317;BME280;67572;50.930;18.276;2023-05-10T05:11:06;99126.31;;;8.71;59.56
78317;BME280;67572;50.930;18.276;2023-05-10T05:14:10;99126.31;;;8.85;58.66
78317;BME280;67572;50.930;18.276;2023-05-10T05:17:13;99122.03;;;9.11;58.66
78317;BME280;67572;50.930;18.276;2023-05-10T05:20:17;99129.47;;;9.33;58.01
78317;BME280;67572;50.930;18.276;2023-05-10T05:23:21;99132.38;;;9.57;59.42
78317;BME280;67572;50.930;18.276;2023-05-10T05:26:28;99130.72;;;9.69;57.96
78317;BME280;67572;50.930;18.276;2023-05-10T05:29:32;99132.72;;;9.92;57.60
78317;BME280;67572;50.930;18.276;2023-05-10T05:32:35;99141.59;;;10.06;56.00
78317;BME280;67572;50.930;18.276;2023-05-10T05:35:39;99140.13;;;9.87;55.83
78317;BME280;67572;50.930;18.276;2023-05-10T05:38:43;99131.75;;;10.20;55.58
78317;BME280;67572;50.930;18.276;2023-05-10T05:41:48;99136.25;;;10.33;55.38
78317;BME280;67572;50.930;18.276;2023-05-10T05:44:52;99141.41;;;10.74;55.77
78317;BME280;67572;50.930;18.276;2023-05-10T05:47:55;99135.22;;;10.86;54.93
78317;BME280;67572;50.930;18.276;2023-05-10T05:50:59;99141.41;;;11.12;54.57
78317;BME280;67572;50.930;18.276;2023-05-10T05:54:02;99137.78;;;11.13;53.43
78317;BME280;67572;50.930;18.276;2023-05-10T05:57:08;99142.22;;;11.25;53.21
78317;BME280;67572;50.930;18.276;2023-05-10T06:00:13;99140.50;;;11.37;53.15
78317;BME280;67572;50.930;18.276;2023-05-10T06:03:16;99136.47;;;11.68;52.15
78317;BME280;67572;50.930;18.276;2023-05-10T06:06:20;99134.34;;;11.60;52.30
78317;BME280;67572;50.930;18.276;2023-05-10T06:09:23;99138.72;;;11.98;52.98
78317;BME280;67572;50.930;18.276;2023-05-10T06:12:28;99137.59;;;11.89;51.12
78317;BME280;67572;50.930;18.276;2023-05-10T06:15:32;99137.22;;;12.18;52.31
78317;BME280;67572;50.930;18.276;2023-05-10T06:18:36;99132.72;;;12.54;49.88
78317;BME280;67572;50.930;18.276;2023-05-10T06:21:39;99128.44;;;12.86;51.01
78317;BME280;67572;50.930;18.276;2023-05-10T06:24:43;99134.66;;;13.20;51.23
78317;BME280;67572;50.930;18.276;2023-05-10T06:27:49;99134.66;;;13.20;50.34
78317;BME280;67572;50.930;18.276;2023-05-10T06:30:54;99131.22;;;13.18;48.67
78317;BME280;67572;50.930;18.276;2023-05-10T06:33:58;99125.53;;;13.34;48.50
78317;BME280;67572;50.930;18.276;2023-05-10T06:37:01;99130.53;;;13.39;47.53
78317;BME280;67572;50.930;18.276;2023-05-10T06:40:07;99121.44;;;13.30;47.04
78317;BME280;67572;50.930;18.276;2023-05-10T06:43:12;99126.22;;;13.58;48.38
78317;BME280;67572;50.930;18.276;2023-05-10T06:46:16;99126.00;;;14.26;49.07
78317;BME280;67572;50.930;18.276;2023-05-10T06:49:19;99131.84;;;14.31;49.42
78317;BME280;67572;50.930;18.276;2023-05-10T06:52:23;99131.84;;;14.31;47.45
78317;BME280;67572;50.930;18.276;2023-05-10T06:55:27;99124.28;;;14.57;45.88
78317;BME280;67572;50.930;18.276;2023-05-10T06:58:32;99128.09;;;14.43;45.41
78317;BME280;67572;50.930;18.276;2023-05-10T07:01:36;99118.53;;;14.40;46.82
78317;BME280;67572;50.930;18.276;2023-05-10T07:04:39;99113.09;;;14.93;47.20
78317;BME280;67572;50.930;18.276;2023-05-10T07:07:43;99113.53;;;14.89;44.76
78317;BME280;67572;50.930;18.276;2023-05-10T07:10:46;99112.25;;;14.93;45.38
78317;BME280;67572;50.930;18.276;2023-05-10T07:13:51;99114.41;;;14.99;44.69
78317;BME280;67572;50.930;18.276;2023-05-10T07:16:55;99111.28;;;15.24;44.40
78317;BME280;67572;50.930;18.276;2023-05-10T07:19:59;99117.44;;;15.15;45.61
78317;BME280;67572;50.930;18.276;2023-05-10T07:23:03;99123.16;;;15.41;45.66
78317;BME280;67572;50.930;18.276;2023-05-10T07:26:07;99121.16;;;15.34;46.30
78317;BME280;67572;50.930;18.276;2023-05-10T07:29:12;99114.34;;;15.60;44.40
78317;BME280;67572;50.930;18.276;2023-05-10T07:32:16;99111.59;;;15.91;46.06
78317;BME280;67572;50.930;18.276;2023-05-10T07:35:20;99106.09;;;15.92;43.67
78317;BME280;67572;50.930;18.276;2023-05-10T07:38:24;99111.34;;;16.42;43.49
78317;BME280;67572;50.930;18.276;2023-05-10T07:41:28;99101.72;;;16.30;42.60
78317;BME280;67572;50.930;18.276;2023-05-10T07:44:33;99100.63;;;16.03;41.47
78317;BME280;67572;50.930;18.276;2023-05-10T07:47:36;99103.13;;;16.44;40.52
78317;BME280;67572;50.930;18.276;2023-05-10T07:50:40;99101.31;;;16.34;41.34
78317;BME280;67572;50.930;18.276;2023-05-10T07:53:44;99099.28;;;16.75;41.15
78317;BME280;67572;50.930;18.276;2023-05-10T07:56:48;99096.13;;;16.89;43.25
78317;BME280;67572;50.930;18.276;2023-05-10T07:59:53;99096.34;;;16.78;41.23
78317;BME280;67572;50.930;18.276;2023-05-10T08:02:56;99096.56;;;16.85;41.97
78317;BME280;67572;50.930;18.276;2023-05-10T08:06:00;99093.34;;;17.18;40.58
78317;BME280;67572;50.930;18.276;2023-05-10T08:09:04;99089.81;;;16.81;39.50
78317;BME280;67572;50.930;18.276;2023-05-10T08:12:07;99101.72;;;17.15;39.44
78317;BME280;67572;50.930;18.276;2023-05-10T08:15:12;99093.31;;;16.91;38.30
78317;BME280;67572;50.930;18.276;2023-05-10T08:18:16;99089.50;;;16.84;37.25
78317;BME280;67572;50.930;18.276;2023-05-10T08:21:22;99097.13;;;17.53;38.72
78317;BME280;67572;50.930;18.276;2023-05-10T08:24:26;99089.34;;;16.95;37.11
78317;BME280;67572;50.930;18.276;2023-05-10T08:27:29;99089.72;;;17.10;37.65
78317;BME280;67572;50.930;18.276;2023-05-10T08:30:34;99087.44;;;17.42;38.15
78317;BME280;67572;50.930;18.276;2023-05-10T08:33:38;99085.53;;;17.53;36.58
78317;BME280;67572;50.930;18.276;2023-05-10T08:36:43;99091.72;;;17.63;35.87
78317;BME280;67572;50.930;18.276;2023-05-10T08:39:47;99093.19;;;17.20;36.35
78317;BME280;67572;50.930;18.276;2023-05-10T08:42:55;99096.91;;;17.46;35.75
78317;BME280;67572;50.930;18.276;2023-05-10T08:46:05;99084.94;;;17.59;36.17
78317;BME280;67572;50.930;18.276;2023-05-10T08:49:09;99090.38;;;17.49;35.25
78317;BME280;67572;50.930;18.276;2023-05-10T08:52:16;99083.59;;;18.26;35.67
78317;BME280;67572;50.930;18.276;2023-05-10T08:55:20;99087.69;;;18.30;37.51
78317;BME280;67572;50.930;18.276;2023-05-10T08:58:25;99100.22;;;18.65;37.30
78317;BME280;67572;50.930;18.276;2023-05-10T09:01:31;99085.38;;;18.17;35.53
78317;BME280;67572;50.930;18.276;2023-05-10T09:04:35;99087.63;;;18.22;36.25
78317;BME280;67572;50.930;18.276;2023-05-10T09:07:39;99087.53;;;18.32;37.21
78317;BME280;67572;50.930;18.276;2023-05-10T09:10:43;99085.94;;;17.58;36.22
78317;BME280;67572;50.930;18.276;2023-05-10T09:13:50;99090.47;;;17.85;36.00
78317;BME280;67572;50.930;18.276;2023-05-10T09:16:56;99087.81;;;17.75;35.63
78317;BME280;67572;50.930;18.276;2023-05-10T09:20:01;99087.16;;;17.63;36.61
78317;BME280;67572;50.930;18.276;2023-05-10T09:23:06;99084.44;;;18.26;37.56
78317;BME280;67572;50.930;18.276;2023-05-10T09:26:09;99092.13;;;17.40;35.83
78317;BME280;67572;50.930;18.276;2023-05-10T09:29:13;99083.31;;;17.48;35.67
78317;BME280;67572;50.930;18.276;2023-05-10T09:32:20;99085.75;;;17.41;36.27
78317;BME280;67572;50.930;18.276;2023-05-10T09:35:25;99078.91;;;16.82;36.52
78317;BME280;67572;50.930;18.276;2023-05-10T09:38:45;99081.06;;;16.79;38.19
78317;BME280;67572;50.930;18.276;2023-05-10T09:41:49;99094.81;;;17.03;36.37
78317;BME280;67572;50.930;18.276;2023-05-10T09:44:52;99092.16;;;17.58;35.63
78317;BME280;67572;50.930;18.276;2023-05-10T09:47:59;99095.72;;;17.31;37.24
78317;BME280;67572;50.930;18.276;2023-05-10T09:51:03;99089.53;;;17.66;37.91
78317;BME280;67572;50.930;18.276;2023-05-10T09:54:11;99093.31;;;18.01;36.15
78317;BME280;67572;50.930;18.276;2023-05-10T09:57:20;99091.66;;;17.72;37.01
78317;BME280;67572;50.930;18.276;2023-05-10T10:00:24;99086.16;;;18.10;36.99
78317;BME280;67572;50.930;18.276;2023-05-10T10:03:28;99081.91;;;17.89;35.29
78317;BME280;67572;50.930;18.276;2023-05-10T10:06:36;99083.28;;;17.75;34.94
78317;BME280;67572;50.930;18.276;2023-05-10T10:09:40;99075.03;;;18.92;35.08
78317;BME280;67572;50.930;18.276;2023-05-10T10:12:44;99069.63;;;18.05;34.84
78317;BME280;67572;50.930;18.276;2023-05-10T10:15:48;99084.81;;;18.67;35.98
78317;BME280;67572;50.930;18.276;2023-05-10T10:18:55;99077.53;;;18.24;34.80
78317;BME280;67572;50.930;18.276;2023-05-10T10:22:00;99064.81;;;19.04;35.59
78317;BME280;67572;50.930;18.276;2023-05-10T10:25:04;99063.44;;;20.09;35.77
78317;BME280;67572;50.930;18.276;2023-05-10T10:28:21;99055.03;;;19.45;33.12
78317;BME280;67572;50.930;18.276;2023-05-10T10:31:36;99063.69;;;19.15;34.06
78317;BME280;67572;50.930;18.276;2023-05-10T10:34:43;99065.09;;;18.05;34.74
78317;BME280;67572;50.930;18.276;2023-05-10T10:37:50;99054.53;;;18.73;33.54
78317;BME280;67572;50.930;18.276;2023-05-10T10:41:02;99056.53;;;20.06;33.61
78317;BME280;67572;50.930;18.276;2023-05-10T10:44:26;99061.56;;;19.77;34.47
78317;BME280;67572;50.930;18.276;2023-05-10T10:47:31;99055.66;;;19.31;31.35
78317;BME280;67572;50.930;18.276;2023-05-10T10:50:44;99056.28;;;18.65;32.44
78317;BME280;67572;50.930;18.276;2023-05-10T10:53:48;99053.88;;;18.53;36.29
78317;BME280;67572;50.930;18.276;2023-05-10T10:57:10;99050.91;;;18.65;37.03
78317;BME280;67572;50.930;18.276;2023-05-10T11:00:28;99055.00;;;18.25;37.37
78317;BME280;67572;50.930;18.276;2023-05-10T11:03:33;99048.13;;;18.48;32.98
78317;BME280;67572;50.930;18.276;2023-05-10T11:06:38;99050.63;;;18.50;34.42
78317;BME280;67572;50.930;18.276;2023-05-10T11:09:42;99051.66;;;18.49;33.83
78317;BME280;67572;50.930;18.276;2023-05-10T11:12:53;99051.69;;;18.57;34.28
78317;BME280;67572;50.930;18.276;2023-05-10T11:15:58;99048.06;;;18.40;31.82
78317;BME280;67572;50.930;18.276;2023-05-10T11:19:04;99049.03;;;17.95;32.47
78317;BME280;67572;50.930;18.276;2023-05-10T11:22:15;99048.34;;;18.55;32.00
78317;BME280;67572;50.930;18.276;2023-05-10T11:25:22;99047.78;;;19.03;32.64
78317;BME280;67572;50.930;18.276;2023-05-10T11:28:29;99040.97;;;19.59;32.33
78317;BME280;67572;50.930;18.276;2023-05-10T11:31:34;99048.06;;;19.68;35.42
78317;BME280;67572;50.930;18.276;2023-05-10T11:34:38;99034.59;;;20.01;30.96
78317;BME280;67572;50.930;18.276;2023-05-10T11:37:47;99041.66;;;19.86;31.13
78317;BME280;67572;50.930;18.276;2023-05-10T11:40:52;99035.78;;;20.39;29.60
78317;BME280;67572;50.930;18.276;2023-05-10T11:43:57;99026.31;;;20.68;30.61
78317;BME280;67572;50.930;18.276;2023-05-10T11:47:01;99040.84;;;21.22;30.38
78317;BME280;67572;50.930;18.276;2023-05-10T11:50:06;99040.53;;;21.17;29.27
78317;BME280;67572;50.930;18.276;2023-05-10T11:53:13;99029.22;;;21.53;28.65
78317;BME280;67572;50.930;18.276;2023-05-10T11:56:16;99038.63;;;21.26;30.59
78317;BME280;67572;50.930;18.276;2023-05-10T11:59:20;99032.50;;;20.93;29.66
78317;BME280;67572;50.930;18.276;2023-05-10T12:02:24;99033.06;;;20.39;31.19
78317;BME280;67572;50.930;18.276;2023-05-10T12:05:27;99024.13;;;20.71;32.25
78317;BME280;67572;50.930;18.276;2023-05-10T12:08:33;99031.28;;;21.74;32.44
78317;BME280;67572;50.930;18.276;2023-05-10T12:11:38;99030.97;;;21.77;28.49
78317;BME280;67572;50.930;18.276;2023-05-10T12:14:48;99030.25;;;22.43;29.52
78317;BME280;67572;50.930;18.276;2023-05-10T12:17:53;99028.31;;;22.37;27.92
78317;BME280;67572;50.930;18.276;2023-05-10T12:21:03;99033.09;;;21.58;28.77
78317;BME280;67572;50.930;18.276;2023-05-10T12:24:09;99032.84;;;21.68;29.54
78317;BME280;67572;50.930;18.276;2023-05-10T12:27:12;99029.47;;;20.96;29.19
78317;BME280;67572;50.930;18.276;2023-05-10T12:30:21;99027.88;;;19.97;30.08
78317;BME280;67572;50.930;18.276;2023-05-10T12:33:25;99036.25;;;19.70;31.71
78317;BME280;67572;50.930;18.276;2023-05-10T12:36:28;99024.72;;;19.51;32.77
78317;BME280;67572;50.930;18.276;2023-05-10T12:39:43;99027.09;;;19.54;32.30
78317;BME280;67572;50.930;18.276;2023-05-10T12:42:48;99021.03;;;20.83;33.11
78317;BME280;67572;50.930;18.276;2023-05-10T12:45:51;99015.66;;;21.30;33.00
78317;BME280;67572;50.930;18.276;2023-05-10T12:48:55;99024.16;;;20.31;30.29
78317;BME280;67572;50.930;18.276;2023-05-10T12:52:09;99019.59;;;19.99;31.25
78317;BME280;67572;50.930;18.276;2023-05-10T12:55:15;99015.69;;;19.60;31.66
78317;BME280;67572;50.930;18.276;2023-05-10T12:58:18;99011.81;;;19.87;34.51
78317;BME280;67572;50.930;18.276;2023-05-10T13:01:28;99006.72;;;19.09;33.30
78317;BME280;67572;50.930;18.276;2023-05-10T13:04:32;99020.94;;;18.85;33.54
78317;BME280;67572;50.930;18.276;2023-05-10T13:07:35;99012.81;;;19.78;32.55
78317;BME280;67572;50.930;18.276;2023-05-10T13:10:40;99005.56;;;19.79;32.11
78317;BME280;67572;50.930;18.276;2023-05-10T13:13:44;99004.09;;;20.49;34.54
78317;BME280;67572;50.930;18.276;2023-05-10T13:16:48;99003.88;;;20.67;31.58
78317;BME280;67572;50.930;18.276;2023-05-10T13:19:51;99002.22;;;20.09;30.44
78317;BME280;67572;50.930;18.276;2023-05-10T13:22:55;98991.41;;;20.01;32.93
78317;BME280;67572;50.930;18.276;2023-05-10T13:26:00;98995.31;;;19.74;32.68
78317;BME280;67572;50.930;18.276;2023-05-10T13:29:03;98994.06;;;19.52;31.53
78317;BME280;67572;50.930;18.276;2023-05-10T13:32:07;98985.41;;;19.40;32.60
78317;BME280;67572;50.930;18.276;2023-05-10T13:35:11;98996.97;;;19.59;33.53
78317;BME280;67572;50.930;18.276;2023-05-10T13:38:14;98984.16;;;20.50;34.04
78317;BME280;67572;50.930;18.276;2023-05-10T13:41:19;98979.59;;;20.51;31.39
78317;BME280;67572;50.930;18.276;2023-05-10T13:44:23;98977.31;;;20.87;30.95
78317;BME280;67572;50.930;18.276;2023-05-10T13:47:27;98973.19;;;21.39;32.11
78317;BME280;67572;50.930;18.276;2023-05-10T13:50:30;98981.81;;;21.65;30.08
78317;BME280;67572;50.930;18.276;2023-05-10T13:53:34;98973.88;;;21.01;31.21
78317;BME280;67572;50.930;18.276;2023-05-10T13:56:42;98965.25;;;20.34;31.41
78317;BME280;67572;50.930;18.276;2023-05-10T13:59:46;98969.84;;;19.68;31.82
78317;BME280;67572;50.930;18.276;2023-05-10T14:02:50;98970.16;;;20.31;32.48
78317;BME280;67572;50.930;18.276;2023-05-10T14:05:53;98965.50;;;21.19;31.75
78317;BME280;67572;50.930;18.276;2023-05-10T14:08:57;98961.63;;;21.45;31.13
78317;BME280;67572;50.930;18.276;2023-05-10T14:12:05;98959.31;;;21.42;30.20
78317;BME280;67572;50.930;18.276;2023-05-10T14:15:09;98961.22;;;20.94;29.60
78317;BME280;67572;50.930;18.276;2023-05-10T14:18:13;98951.47;;;20.76;31.54
78317;BME280;67572;50.930;18.276;2023-05-10T14:21:17;98953.66;;;19.85;32.86
78317;BME280;67572;50.930;18.276;2023-05-10T14:24:20;98957.44;;;19.33;33.21
78317;BME280;67572;50.930;18.276;2023-05-10T14:27:25;98954.44;;;19.53;34.06
78317;BME280;67572;50.930;18.276;2023-05-10T14:30:31;98948.19;;;19.44;33.30
78317;BME280;67572;50.930;18.276;2023-05-10T14:33:34;98957.09;;;19.28;33.57
78317;BME280;67572;50.930;18.276;2023-05-10T14:36:39;98946.09;;;19.05;34.94
78317;BME280;67572;50.930;18.276;2023-05-10T14:39:43;98948.09;;;19.11;34.21
78317;BME280;67572;50.930;18.276;2023-05-10T14:42:47;98938.53;;;19.17;33.88
78317;BME280;67572;50.930;18.276;2023-05-10T14:45:51;98942.59;;;20.60;30.83
78317;BME280;67572;50.930;18.276;2023-05-10T14:48:55;98942.06;;;20.72;29.40
78317;BME280;67572;50.930;18.276;2023-05-10T14:51:59;98942.66;;;20.91;31.11
78317;BME280;67572;50.930;18.276;2023-05-10T14:55:03;98943.88;;;20.80;30.94
78317;BME280;67572;50.930;18.276;2023-05-10T14:58:08;98936.13;;;21.16;30.85
78317;BME280;67572;50.930;18.276;2023-05-10T15:01:12;98941.63;;;20.92;30.66
78317;BME280;67572;50.930;18.276;2023-05-10T15:04:16;98942.59;;;20.99;30.85
78317;BME280;67572;50.930;18.276;2023-05-10T15:07:20;98947.56;;;20.87;31.81
78317;BME280;67572;50.930;18.276;2023-05-10T15:10:24;98938.19;;;21.06;30.74
78317;BME280;67572;50.930;18.276;2023-05-10T15:13:29;98947.63;;;20.63;32.43
78317;BME280;67572;50.930;18.276;2023-05-10T15:16:33;98945.13;;;21.00;32.60
78317;BME280;67572;50.930;18.276;2023-05-10T15:19:37;98948.38;;;20.96;32.11
78317;BME280;67572;50.930;18.276;2023-05-10T15:22:40;98944.56;;;20.74;32.09
78317;BME280;67572;50.930;18.276;2023-05-10T15:25:44;98944.22;;;19.81;32.77
78317;BME280;67572;50.930;18.276;2023-05-10T15:28:49;98946.56;;;20.08;32.25
78317;BME280;67572;50.930;18.276;2023-05-10T15:31:53;98945.69;;;20.40;33.89
78317;BME280;67572;50.930;18.276;2023-05-10T15:34:57;98935.03;;;20.31;31.15
78317;BME280;67572;50.930;18.276;2023-05-10T15:38:01;98946.84;;;20.30;31.63
78317;BME280;67572;50.930;18.276;2023-05-10T15:41:04;98938.47;;;19.59;33.09
78317;BME280;67572;50.930;18.276;2023-05-10T15:44:09;98948.66;;;19.23;33.18
78317;BME280;67572;50.930;18.276;2023-05-10T15:47:13;98945.72;;;19.83;33.14
78317;BME280;67572;50.930;18.276;2023-05-10T15:50:17;98934.50;;;19.21;33.46
78317;BME280;67572;50.930;18.276;2023-05-10T15:53:21;98942.94;;;19.26;33.36
78317;BME280;67572;50.930;18.276;2023-05-10T15:56:25;98942.06;;;19.18;33.22
78317;BME280;67572;50.930;18.276;2023-05-10T15:59:32;98943.81;;;19.43;32.38
78317;BME280;67572;50.930;18.276;2023-05-10T16:02:37;98936.28;;;19.71;32.53
78317;BME280;67572;50.930;18.276;2023-05-10T16:05:41;98936.03;;;19.32;33.29
78317;BME280;67572;50.930;18.276;2023-05-10T16:08:44;98934.25;;;18.90;33.94
78317;BME280;67572;50.930;18.276;2023-05-10T16:11:49;98944.84;;;18.57;35.33
78317;BME280;67572;50.930;18.276;2023-05-10T16:14:56;98942.81;;;18.85;34.11